createdAt,value
2022-09-12T00:00:56.747Z,14.80
2022-09-12T00:01:56.756Z,15.90
2022-09-12T00:02:56.705Z,15.80
2022-09-12T00:03:56.688Z,16.00
2022-09-12T00:04:56.689Z,16.00
2022-09-12T00:05:56.690Z,17.00
2022-09-12T00:06:56.646Z,15.70
2022-09-12T00:07:56.654Z,16.40
2022-09-12T00:08:56.645Z,16.00
2022-09-12T00:09:56.618Z,16.70
2022-09-12T00:10:56.602Z,16.10
2022-09-12T00:11:56.595Z,15.80
2022-09-12T00:12:56.580Z,16.90
2022-09-12T00:13:56.585Z,15.90
2022-09-12T00:14:56.574Z,16.80
2022-09-12T00:15:56.555Z,16.90
2022-09-12T00:16:56.534Z,16.30
2022-09-12T00:17:56.541Z,16.00
2022-09-12T00:18:56.510Z,15.70
2022-09-12T00:19:56.519Z,16.60
2022-09-12T00:20:56.491Z,16.00
2022-09-12T00:21:56.503Z,16.50
2022-09-12T00:22:56.466Z,16.90
2022-09-12T00:23:56.598Z,16.40
2022-09-12T00:24:56.452Z,17.40
2022-09-12T00:25:56.440Z,17.20
2022-09-12T00:26:56.420Z,16.60
2022-09-12T00:27:56.425Z,16.90
2022-09-12T00:28:56.398Z,16.60
2022-09-12T00:29:56.419Z,16.70
2022-09-12T00:30:56.380Z,16.70
2022-09-12T00:31:56.466Z,16.00
2022-09-12T00:32:56.358Z,16.30
2022-09-12T00:33:56.350Z,15.60
2022-09-12T00:34:56.336Z,16.20
2022-09-12T00:35:56.340Z,15.90
2022-09-12T00:36:56.310Z,16.40
2022-09-12T00:37:56.322Z,17.70
2022-09-12T00:38:56.298Z,16.60
2022-09-12T00:39:56.348Z,17.20
2022-09-12T00:40:56.278Z,17.30
2022-09-12T00:41:56.262Z,18.00
2022-09-12T00:42:56.244Z,16.20
2022-09-12T00:43:56.237Z,17.70
2022-09-12T00:44:56.221Z,16.60
2022-09-12T00:46:03.822Z,17.30
2022-09-12T00:46:56.198Z,15.90
2022-09-12T00:47:56.190Z,16.40
2022-09-12T00:48:56.187Z,17.10
2022-09-12T00:49:56.179Z,16.70
2022-09-12T00:50:56.168Z,17.30
2022-09-12T00:51:56.140Z,17.90
2022-09-12T00:52:56.138Z,18.20
2022-09-12T00:53:56.142Z,18.00
2022-09-12T00:54:56.123Z,18.30
2022-09-12T00:55:56.122Z,18.20
2022-09-12T00:56:56.091Z,17.90
2022-09-12T00:57:56.075Z,18.40
2022-09-12T00:58:56.068Z,17.30
2022-09-12T00:59:56.056Z,17.20
2022-09-12T01:00:56.078Z,17.00
2022-09-12T01:01:56.126Z,17.70
2022-09-12T01:02:56.025Z,17.20
2022-09-12T01:03:56.007Z,18.30
2022-09-12T01:04:56.004Z,18.70
2022-09-12T01:05:55.986Z,18.00
2022-09-12T01:06:56.019Z,18.20
2022-09-12T01:07:55.981Z,18.40
2022-09-12T01:08:55.955Z,18.30
2022-09-12T01:09:55.960Z,18.80
2022-09-12T01:10:55.932Z,18.10
2022-09-12T01:11:55.927Z,18.00
2022-09-12T01:12:55.911Z,18.50
2022-09-12T01:13:55.908Z,18.80
2022-09-12T01:14:55.889Z,16.70
2022-09-12T01:15:55.876Z,18.50
2022-09-12T01:16:55.878Z,18.30
2022-09-12T01:17:55.853Z,18.40
2022-09-12T01:18:55.840Z,18.20
2022-09-12T01:19:55.840Z,18.00
2022-09-12T01:20:55.819Z,17.70
2022-09-12T01:21:55.802Z,17.60
2022-09-12T01:22:55.800Z,18.40
2022-09-12T01:23:55.779Z,17.10
2022-09-12T01:24:55.792Z,16.70
2022-09-12T01:25:55.781Z,16.30
2022-09-12T01:26:55.754Z,17.00
2022-09-12T01:27:55.734Z,16.70
2022-09-12T01:28:55.728Z,16.90
2022-09-12T01:29:55.712Z,16.30
2022-09-12T01:30:55.723Z,17.40
2022-09-12T01:31:55.728Z,17.70
2022-09-12T01:32:55.684Z,17.50
2022-09-12T01:33:55.680Z,16.90
2022-09-12T01:34:55.667Z,18.40
2022-09-12T01:35:55.647Z,17.70
2022-09-12T01:36:55.641Z,17.80
2022-09-12T01:37:55.636Z,18.30
2022-09-12T01:38:55.622Z,17.70
2022-09-12T01:39:55.681Z,17.40
2022-09-12T01:40:55.603Z,16.40
2022-09-12T01:41:55.613Z,17.70
2022-09-12T01:42:55.588Z,17.60
2022-09-12T01:43:55.570Z,16.90
2022-09-12T01:44:55.553Z,16.70
2022-09-12T01:45:55.594Z,17.60
2022-09-12T01:46:55.529Z,17.10
2022-09-12T01:47:55.524Z,17.40
2022-09-12T01:48:55.508Z,16.50
2022-09-12T01:49:55.493Z,18.10
2022-09-12T01:50:55.485Z,17.40
2022-09-12T01:51:55.470Z,17.80
2022-09-12T01:52:55.548Z,17.50
2022-09-12T01:53:55.460Z,18.10
2022-09-12T01:54:55.442Z,19.00
2022-09-12T01:55:55.427Z,18.20
2022-09-12T01:56:55.421Z,17.90
2022-09-12T01:57:55.427Z,17.60
2022-09-12T01:58:55.415Z,18.10
2022-09-12T01:59:55.384Z,19.00
2022-09-12T02:00:55.409Z,17.90
2022-09-12T02:01:55.431Z,16.90
2022-09-12T02:02:55.354Z,17.30
2022-09-12T02:03:55.355Z,16.60
2022-09-12T02:04:55.355Z,17.60
2022-09-12T02:05:55.316Z,17.80
2022-09-12T02:06:55.311Z,17.60
2022-09-12T02:07:55.316Z,18.10
2022-09-12T02:08:55.289Z,17.40
2022-09-12T02:09:55.284Z,16.80
2022-09-12T02:10:55.276Z,18.10
2022-09-12T02:11:55.251Z,17.00
2022-09-12T02:12:55.247Z,17.50
2022-09-12T02:13:55.252Z,18.40
2022-09-12T02:14:55.242Z,18.20
2022-09-12T02:15:55.207Z,18.90
2022-09-12T02:16:55.201Z,18.50
2022-09-12T02:17:55.197Z,17.90
2022-09-12T02:18:55.177Z,18.60
2022-09-12T02:19:55.171Z,19.90
2022-09-12T02:20:55.156Z,19.70
2022-09-12T02:21:55.146Z,18.80
2022-09-12T02:22:55.135Z,18.70
2022-09-12T02:23:55.146Z,19.10
2022-09-12T02:24:55.125Z,18.60
2022-09-12T02:25:55.116Z,18.50
2022-09-12T02:26:55.088Z,18.90
2022-09-12T02:27:55.073Z,18.30
2022-09-12T02:28:55.065Z,19.20
2022-09-12T02:29:55.072Z,18.20
2022-09-12T02:30:55.144Z,18.30
2022-09-12T02:31:55.048Z,18.50
2022-09-12T02:32:55.021Z,18.50
2022-09-12T02:33:55.006Z,18.00
2022-09-12T02:34:55.008Z,17.50
2022-09-12T02:35:54.985Z,18.60
2022-09-12T02:36:54.977Z,18.20
2022-09-12T02:37:54.962Z,18.20
2022-09-12T02:38:54.967Z,17.30
2022-09-12T02:39:54.974Z,18.00
2022-09-12T02:40:54.933Z,16.70
2022-09-12T02:41:54.931Z,17.60
2022-09-12T02:42:54.918Z,17.70
2022-09-12T02:43:54.898Z,17.70
2022-09-12T02:44:54.893Z,17.50
2022-09-12T02:45:54.952Z,17.70
2022-09-12T02:47:02.371Z,18.30
2022-09-12T02:47:54.863Z,18.20
2022-09-12T02:48:54.844Z,17.60
2022-09-12T02:49:54.828Z,17.80
2022-09-12T02:50:54.822Z,17.30
2022-09-12T02:51:54.806Z,17.00
2022-09-12T02:52:54.833Z,17.50
2022-09-12T02:53:54.785Z,17.30
2022-09-12T02:54:54.777Z,17.30
2022-09-12T02:55:54.775Z,17.30
2022-09-12T02:56:54.754Z,16.40
2022-09-12T02:57:54.740Z,18.60
2022-09-12T02:58:54.738Z,16.90
2022-09-12T02:59:54.717Z,17.50
2022-09-12T03:00:54.744Z,16.30
2022-09-12T03:01:54.755Z,17.50
2022-09-12T03:02:54.691Z,17.00
2022-09-12T03:03:54.674Z,17.60
2022-09-12T03:04:54.673Z,18.40
2022-09-12T03:05:54.664Z,18.40
2022-09-12T03:06:54.647Z,17.50
2022-09-12T03:07:54.630Z,16.90
2022-09-12T03:08:54.627Z,17.90
2022-09-12T03:09:54.619Z,17.10
2022-09-12T03:10:54.602Z,17.40
2022-09-12T03:11:54.599Z,17.90
2022-09-12T03:12:54.581Z,17.80
2022-09-12T03:13:54.567Z,16.40
2022-09-12T03:14:54.559Z,17.40
2022-09-12T03:15:54.553Z,18.20
2022-09-12T03:16:54.548Z,17.80
2022-09-12T03:17:54.542Z,17.50
2022-09-12T03:18:54.527Z,17.80
2022-09-12T03:19:54.499Z,18.60
2022-09-12T03:20:54.507Z,18.60
2022-09-12T03:21:54.488Z,17.80
2022-09-12T03:22:54.473Z,17.50
2022-09-12T03:23:54.455Z,17.90
2022-09-12T03:24:54.447Z,18.00
2022-09-12T03:25:54.431Z,18.90
2022-09-12T03:26:54.439Z,18.20
2022-09-12T03:27:54.422Z,17.20
2022-09-12T03:28:54.404Z,18.30
2022-09-12T03:29:54.389Z,17.80
2022-09-12T03:30:54.474Z,19.10
2022-09-12T03:31:54.373Z,17.80
2022-09-12T03:32:54.379Z,17.60
2022-09-12T03:33:54.376Z,18.10
2022-09-12T03:34:54.337Z,18.70
2022-09-12T03:35:54.320Z,18.30
2022-09-12T03:36:54.315Z,18.60
2022-09-12T03:37:54.309Z,18.80
2022-09-12T03:38:54.290Z,18.10
2022-09-12T03:39:54.319Z,17.70
2022-09-12T03:40:55.077Z,18.00
2022-09-12T03:41:54.254Z,17.90
2022-09-12T03:42:54.272Z,17.70
2022-09-12T03:43:54.232Z,18.20
2022-09-12T03:44:54.224Z,18.20
2022-09-12T03:45:54.266Z,17.70
2022-09-12T03:46:54.233Z,17.60
2022-09-12T03:47:54.200Z,18.60
2022-09-12T03:48:54.202Z,18.20
2022-09-12T03:49:54.184Z,18.80
2022-09-12T03:50:54.158Z,18.00
2022-09-12T03:51:54.142Z,18.00
2022-09-12T03:52:54.136Z,18.20
2022-09-12T03:53:54.121Z,18.30
2022-09-12T03:54:54.128Z,17.70
2022-09-12T03:55:54.101Z,18.30
2022-09-12T03:56:54.093Z,19.00
2022-09-12T03:57:54.112Z,18.20
2022-09-12T03:58:54.074Z,19.10
2022-09-12T03:59:54.065Z,17.50
2022-09-12T04:00:54.107Z,19.10
2022-09-12T04:01:54.070Z,18.10
2022-09-12T04:02:54.026Z,18.40
2022-09-12T04:03:54.012Z,18.40
2022-09-12T04:04:54.021Z,19.10
2022-09-12T04:05:54.005Z,18.30
2022-09-12T04:06:53.981Z,17.60
2022-09-12T04:07:53.978Z,17.80
2022-09-12T04:08:53.961Z,17.40
2022-09-12T04:09:53.956Z,17.50
2022-09-12T04:10:53.936Z,18.70
2022-09-12T04:11:53.920Z,17.60
2022-09-12T04:12:53.915Z,17.60
2022-09-12T04:13:53.907Z,18.10
2022-09-12T04:14:53.894Z,17.80
2022-09-12T04:15:53.888Z,17.20
2022-09-12T04:16:53.895Z,18.00
2022-09-12T04:17:53.867Z,17.30
2022-09-12T04:18:53.875Z,18.20
2022-09-12T04:19:53.831Z,17.70
2022-09-12T04:20:53.827Z,18.10
2022-09-12T04:21:53.831Z,18.60
2022-09-12T04:22:53.809Z,18.90
2022-09-12T04:23:53.802Z,18.60
2022-09-12T04:24:53.780Z,19.20
2022-09-12T04:25:53.781Z,18.10
2022-09-12T04:26:53.770Z,20.20
2022-09-12T04:27:53.755Z,18.80
2022-09-12T04:28:53.758Z,19.50
2022-09-12T04:29:53.723Z,19.30
2022-09-12T04:30:53.762Z,17.90
2022-09-12T04:31:53.698Z,18.40
2022-09-12T04:32:53.708Z,18.80
2022-09-12T04:33:53.686Z,18.90
2022-09-12T04:34:53.670Z,19.30
2022-09-12T04:35:53.654Z,19.30
2022-09-12T04:36:53.661Z,19.10
2022-09-12T05:52:56.340Z,19.3
2022-09-12T05:52:56.432Z,16.4
2022-09-12T05:53:56.415Z,16.2
2022-09-12T05:54:56.669Z,15.7
2022-09-12T05:55:56.420Z,16.3
2022-09-12T05:56:56.455Z,16.3
2022-09-12T05:57:56.403Z,15.8
2022-09-12T05:58:56.435Z,16.2
2022-09-12T05:59:56.351Z,16.3
2022-09-12T06:00:56.587Z,15.6
2022-09-12T06:01:56.423Z,16.4
2022-09-12T06:02:56.324Z,15.9
2022-09-12T06:03:56.306Z,16.0
2022-09-12T06:04:56.300Z,15.2
2022-09-12T06:05:56.294Z,15.5
2022-09-12T06:06:56.288Z,15.8
2022-09-12T06:07:56.278Z,15.1
2022-09-12T06:08:56.282Z,15.2
2022-09-12T06:09:56.244Z,14.2
2022-09-12T06:10:59.254Z,15.0
2022-09-12T06:11:57.232Z,14.9
2022-09-12T06:12:56.242Z,15.4
2022-09-12T06:13:56.238Z,15.2
2022-09-12T06:14:56.202Z,13.4
2022-09-12T06:15:56.174Z,14.3
2022-09-12T06:16:56.216Z,13.6
2022-09-12T06:17:56.809Z,14.1
2022-09-12T06:18:56.160Z,13.9
2022-09-12T06:19:56.405Z,13.3
2022-09-12T06:20:56.153Z,13.7
2022-09-12T06:21:56.125Z,14.1
2022-09-12T06:22:56.097Z,14.7
2022-09-12T06:23:56.250Z,13.7
2022-09-12T06:24:58.060Z,13.6
2022-09-12T06:25:56.170Z,13.5
2022-09-12T06:26:56.050Z,12.9
2022-09-12T06:27:56.043Z,13.5
2022-09-12T06:28:56.065Z,12.9
2022-09-12T06:29:56.026Z,13.2
2022-09-12T06:30:56.076Z,13.5
2022-09-12T06:31:56.015Z,12.9
2022-09-12T06:32:55.996Z,12.4
2022-09-12T06:33:55.983Z,12.8
2022-09-12T06:34:55.961Z,12.5
2022-09-12T06:35:55.970Z,13.0
2022-09-12T06:36:55.951Z,12.0
2022-09-12T06:37:55.942Z,12.1
2022-09-12T06:38:55.927Z,12.1
2022-09-12T06:39:56.052Z,11.8
2022-09-12T06:40:55.931Z,12.4
2022-09-12T06:41:55.917Z,12.4
2022-09-12T06:42:55.871Z,11.0
2022-09-12T06:43:55.886Z,11.4
2022-09-12T06:44:55.880Z,11.6
2022-09-12T06:45:55.884Z,11.3
2022-09-12T06:46:55.856Z,11.2
2022-09-12T06:47:56.605Z,11.4
2022-09-12T06:48:55.820Z,11.0
2022-09-12T06:49:55.801Z,10.3
2022-09-12T06:50:55.836Z,10.9
2022-09-12T06:51:56.999Z,10.8
2022-09-12T06:52:56.875Z,11.1
2022-09-12T06:53:55.767Z,10.9
2022-09-12T06:54:55.755Z,10.6
2022-09-12T06:55:55.841Z,10.9
2022-09-12T06:56:55.935Z,10.8
2022-09-12T06:57:55.710Z,10.1
2022-09-12T06:58:55.694Z,11.3
2022-09-12T06:59:55.697Z,10.0
2022-09-12T07:00:59.036Z,10.2
2022-09-12T07:01:55.767Z,10.6
2022-09-12T07:02:55.653Z,10.1
2022-09-12T07:03:55.663Z,10.7
2022-09-12T07:04:55.627Z,9.6
2022-09-12T07:05:55.644Z,10.1
2022-09-12T07:06:55.617Z,9.9
2022-09-12T07:07:55.647Z,10.0
2022-09-12T07:08:55.611Z,9.7
2022-09-12T07:09:55.595Z,10.0
2022-09-12T07:10:56.912Z,9.9
2022-09-12T07:11:55.565Z,10.2
2022-09-12T07:12:55.577Z,8.9
2022-09-12T07:13:55.533Z,9.4
2022-09-12T07:14:55.516Z,9.0
2022-09-12T07:15:55.519Z,9.3
2022-09-12T07:16:55.544Z,8.9
2022-09-12T07:17:55.506Z,9.2
2022-09-12T07:18:55.491Z,9.4
2022-09-12T07:19:56.332Z,9.5
2022-09-12T07:20:56.342Z,9.1
2022-09-12T07:21:58.664Z,9.0
2022-09-12T07:22:55.430Z,9.5
2022-09-12T07:23:55.431Z,8.5
2022-09-12T07:24:55.404Z,9.4
2022-09-12T07:25:55.409Z,8.8
2022-09-12T07:26:55.378Z,8.6
2022-09-12T07:27:55.390Z,8.3
2022-09-12T07:29:03.721Z,8.6
2022-09-12T07:29:56.360Z,8.6
2022-09-12T07:30:55.391Z,8.5
2022-09-12T07:31:55.330Z,8.6
2022-09-12T07:32:55.388Z,8.5
2022-09-12T07:33:55.423Z,9.0
2022-09-12T07:34:55.323Z,8.6
2022-09-12T07:35:55.295Z,8.1
2022-09-12T07:36:55.286Z,8.5
2022-09-12T07:37:55.367Z,8.8
2022-09-12T07:38:57.387Z,8.1
2022-09-12T07:39:55.337Z,8.9
2022-09-12T07:40:55.241Z,8.6
2022-09-12T07:41:55.257Z,8.1
2022-09-12T07:42:55.213Z,8.4
2022-09-12T07:43:55.196Z,8.3
2022-09-12T07:44:55.213Z,8.1
2022-09-12T07:45:55.600Z,8.1
2022-09-12T07:46:55.263Z,8.3
2022-09-12T07:47:55.237Z,7.9
2022-09-12T07:48:55.137Z,8.5
2022-09-12T07:49:55.173Z,8.0
2022-09-12T07:50:55.357Z,7.9
2022-09-12T07:51:55.198Z,8.6
2022-09-12T07:52:55.126Z,8.1
2022-09-12T07:54:03.910Z,8.0
2022-09-12T07:54:55.093Z,8.5
2022-09-12T07:55:55.113Z,8.6
2022-09-12T07:56:55.055Z,8.0
2022-09-12T07:57:56.874Z,8.1
2022-09-12T07:58:55.339Z,7.9
2022-09-12T07:59:55.058Z,7.8
2022-09-12T08:00:55.022Z,7.8
2022-09-12T08:01:55.895Z,7.9
2022-09-12T08:02:54.997Z,7.9
2022-09-12T08:03:54.997Z,7.8
2022-09-12T08:04:54.987Z,8.3
2022-09-12T08:05:54.971Z,8.2
2022-09-12T08:06:55.903Z,7.8
2022-09-12T08:07:57.800Z,7.7
2022-09-12T08:08:55.065Z,7.9
2022-09-12T08:09:54.927Z,8.0
2022-09-12T08:10:54.891Z,7.6
2022-09-12T08:11:54.884Z,8.5
2022-09-12T08:12:55.856Z,7.8
2022-09-12T08:13:55.837Z,7.3
2022-09-12T08:14:54.851Z,7.6
2022-09-12T08:15:54.873Z,7.3
2022-09-12T08:16:54.986Z,7.6
2022-09-12T08:17:54.834Z,6.9
2022-09-12T08:18:54.819Z,8.2
2022-09-12T08:19:54.799Z,7.8
2022-09-12T08:20:54.789Z,7.8
2022-09-12T08:21:54.894Z,8.1
2022-09-12T08:22:54.767Z,7.5
2022-09-12T08:23:55.392Z,7.7
2022-09-12T08:24:54.737Z,7.2
2022-09-12T08:25:54.730Z,7.7
2022-09-12T08:26:54.716Z,7.3
2022-09-12T08:27:54.709Z,7.9
2022-09-12T08:28:54.707Z,7.8
2022-09-12T08:29:55.417Z,8.4
2022-09-12T08:30:54.746Z,8.2
2022-09-12T08:31:57.331Z,8.2
2022-09-12T08:32:54.676Z,7.9
2022-09-12T08:33:54.655Z,8.1
2022-09-12T08:34:54.771Z,7.5
2022-09-12T08:35:54.644Z,7.7
2022-09-12T08:36:54.605Z,8.1
2022-09-12T08:37:54.607Z,7.8
2022-09-12T08:38:59.073Z,8.2
2022-09-12T08:39:55.752Z,8.0
2022-09-12T08:40:54.561Z,8.5
2022-09-12T08:41:54.604Z,7.7
2022-09-12T08:42:54.539Z,7.6
2022-09-12T08:43:56.780Z,7.8
2022-09-12T08:44:54.561Z,7.8
2022-09-12T08:45:54.601Z,7.5
2022-09-12T08:46:54.555Z,7.5
2022-09-12T08:47:54.486Z,6.6
2022-09-12T08:48:54.519Z,7.5
2022-09-12T08:49:54.491Z,7.7
2022-09-12T08:50:54.460Z,7.6
2022-09-12T08:51:54.460Z,7.3
2022-09-12T08:52:54.432Z,7.2
2022-09-12T08:53:57.430Z,7.2
2022-09-12T08:54:54.418Z,7.5
2022-09-12T08:55:54.405Z,8.3
2022-09-12T08:56:54.559Z,8.0
2022-09-12T08:57:54.400Z,7.2
2022-09-12T08:58:54.384Z,7.4
2022-09-12T08:59:54.455Z,6.8
2022-09-12T09:00:54.411Z,6.8
2022-09-12T09:01:54.357Z,6.6
2022-09-12T09:02:54.440Z,7.5
2022-09-12T09:03:54.340Z,6.7
2022-09-12T09:04:54.329Z,7.3
2022-09-12T09:05:54.302Z,7.0
2022-09-12T09:06:54.292Z,7.2
2022-09-12T09:07:54.311Z,6.7
2022-09-12T09:08:54.252Z,6.7
2022-09-12T09:09:55.027Z,6.4
2022-09-12T09:10:54.250Z,6.5
2022-09-12T09:11:54.293Z,6.9
2022-09-12T09:12:54.246Z,6.9
2022-09-12T09:13:54.243Z,7.3
2022-09-12T09:14:54.187Z,6.9
2022-09-12T09:15:54.264Z,6.7
2022-09-12T09:16:54.166Z,8.0
2022-09-12T09:17:54.228Z,7.5
2022-09-12T09:18:54.140Z,6.9
2022-09-12T09:19:54.262Z,6.8
2022-09-12T09:20:54.172Z,6.9
2022-09-12T09:21:54.148Z,6.7
2022-09-12T09:22:54.441Z,6.9
2022-09-12T09:23:54.089Z,7.7
2022-09-12T09:24:54.086Z,7.5
2022-09-12T09:25:54.068Z,7.2
2022-09-12T09:26:54.064Z,6.7
2022-09-12T09:27:54.044Z,7.3
2022-09-12T09:28:54.030Z,8.1
2022-09-12T09:29:54.103Z,7.5
2022-09-12T09:30:54.081Z,6.9
2022-09-12T09:31:54.061Z,8.0
2022-09-12T09:32:54.011Z,7.5
2022-09-12T09:33:54.039Z,8.3
2022-09-12T09:34:53.964Z,7.9
2022-09-12T09:35:53.963Z,8.1
2022-09-12T09:36:53.963Z,7.2
2022-09-12T09:37:58.727Z,7.1
2022-09-12T09:38:54.238Z,7.3
2022-09-12T09:39:54.026Z,7.9
2022-09-12T09:40:53.900Z,8.3
2022-09-12T09:41:53.894Z,8.3
2022-09-12T09:42:53.965Z,7.4
2022-09-12T09:43:54.025Z,7.8
2022-09-12T09:44:53.856Z,7.8
2022-09-12T09:45:53.897Z,7.0
2022-09-12T09:46:53.911Z,7.7
2022-09-12T09:47:53.845Z,8.1
2022-09-12T09:48:53.922Z,8.0
2022-09-12T09:49:53.940Z,8.8
2022-09-12T09:50:53.831Z,8.1
2022-09-12T09:51:56.588Z,8.6
2022-09-12T09:52:54.804Z,8.1
2022-09-12T09:53:53.780Z,8.0
2022-09-12T09:55:01.274Z,8.1
2022-09-12T09:55:53.756Z,7.7
2022-09-12T09:56:53.745Z,7.1
2022-09-12T09:57:53.727Z,8.3
2022-09-12T09:58:53.721Z,7.2
2022-09-12T09:59:53.697Z,7.4
2022-09-12T10:00:56.613Z,7.5
2022-09-12T10:01:53.689Z,8.0
2022-09-12T10:02:53.764Z,8.2
2022-09-12T10:03:53.710Z,8.8
2022-09-12T10:04:53.654Z,8.0
2022-09-12T10:05:53.655Z,7.9
2022-09-12T10:06:53.620Z,7.8
2022-09-12T10:07:53.735Z,7.8
2022-09-12T10:08:53.639Z,7.6
2022-09-12T10:09:53.594Z,7.8
2022-09-12T10:10:53.578Z,7.3
2022-09-12T10:11:53.577Z,8.0
2022-09-12T10:12:53.566Z,8.8
2022-09-12T10:13:53.553Z,8.7
2022-09-12T10:14:53.550Z,7.9
2022-09-12T10:15:53.553Z,8.1
2022-09-12T10:16:53.521Z,8.3
2022-09-12T10:17:53.509Z,8.8
2022-09-12T10:18:53.508Z,8.7
2022-09-12T10:20:10.647Z,9.0
2022-09-12T10:20:54.464Z,9.3
2022-09-12T10:21:53.474Z,9.3
2022-09-12T10:22:53.460Z,9.2
2022-09-12T10:23:53.438Z,9.1
2022-09-12T10:24:53.476Z,8.7
2022-09-12T10:25:53.432Z,8.3
2022-09-12T10:26:56.731Z,8.2
2022-09-12T10:27:53.516Z,8.8
2022-09-12T10:28:53.404Z,8.8
2022-09-12T10:29:53.461Z,8.7
2022-09-12T10:30:53.422Z,8.8
2022-09-12T10:31:53.360Z,8.2
2022-09-12T10:32:53.447Z,9.0
2022-09-12T10:33:53.536Z,8.4
2022-09-12T10:34:53.321Z,8.3
2022-09-12T10:35:53.338Z,8.8
2022-09-12T10:36:53.314Z,8.3
2022-09-12T10:37:53.302Z,8.8
2022-09-12T10:38:53.349Z,8.8
2022-09-12T10:39:53.289Z,8.3
2022-09-12T10:40:53.269Z,8.0
2022-09-12T10:41:53.245Z,8.3
2022-09-12T10:42:53.236Z,8.5
2022-09-12T10:43:53.225Z,7.9
2022-09-12T10:44:53.462Z,7.9
2022-09-12T10:45:53.233Z,7.5
2022-09-12T10:46:53.182Z,8.2
2022-09-12T10:47:53.170Z,7.6
2022-09-12T10:48:53.177Z,8.6
2022-09-12T10:49:53.163Z,7.6
2022-09-12T10:50:53.160Z,8.1
2022-09-12T10:51:53.488Z,8.2
2022-09-12T10:52:53.114Z,8.1
2022-09-12T10:53:53.135Z,8.3
2022-09-12T10:54:53.099Z,8.2
2022-09-12T10:55:53.102Z,7.9
2022-09-12T10:56:53.096Z,8.0
2022-09-12T10:57:53.059Z,8.3
2022-09-12T10:58:53.145Z,7.5
2022-09-12T10:59:53.032Z,8.7
2022-09-12T11:00:53.054Z,7.6
2022-09-12T11:01:53.052Z,8.0
2022-09-12T11:02:53.059Z,7.8
2022-09-12T11:03:53.027Z,8.8
2022-09-12T11:04:53.057Z,8.5
2022-09-12T11:05:52.969Z,8.9
2022-09-12T11:06:52.964Z,8.7
2022-09-12T11:07:52.955Z,8.3
2022-09-12T11:08:53.015Z,8.4
2022-09-12T11:09:52.945Z,8.0
2022-09-12T11:10:52.920Z,8.4
2022-09-12T11:11:52.938Z,7.8
2022-09-12T11:12:53.085Z,8.3
2022-09-12T11:13:53.006Z,8.7
2022-09-12T11:14:52.886Z,8.1
2022-09-12T11:15:52.955Z,7.7
2022-09-12T11:16:52.948Z,7.8
2022-09-12T11:17:52.867Z,7.5
2022-09-12T11:18:52.926Z,7.6
2022-09-12T11:19:52.811Z,7.2
2022-09-12T11:20:52.815Z,8.0
2022-09-12T11:21:52.791Z,8.7
2022-09-12T11:22:52.797Z,9.1
2022-09-12T11:23:52.877Z,8.0
2022-09-12T11:24:52.770Z,7.9
2022-09-12T11:25:52.756Z,8.1
2022-09-12T11:26:52.775Z,8.6
2022-09-12T11:27:52.737Z,7.4
2022-09-12T11:28:52.788Z,7.4
2022-09-12T11:29:52.734Z,6.6
2022-09-12T11:30:52.724Z,7.2
2022-09-12T11:31:52.679Z,7.6
2022-09-12T11:32:52.686Z,7.5
2022-09-12T11:33:56.540Z,7.2
2022-09-12T11:34:52.653Z,7.4
2022-09-12T11:35:55.486Z,7.0
2022-09-12T11:36:52.637Z,6.5
2022-09-12T11:37:52.629Z,7.1
2022-09-12T11:38:52.640Z,7.6
2022-09-12T11:39:55.610Z,7.6
2022-09-12T11:40:52.589Z,7.2
2022-09-12T11:41:52.576Z,6.9
2022-09-12T11:42:52.598Z,6.3
2022-09-12T11:43:53.891Z,6.6
2022-09-12T11:44:52.564Z,6.0
2022-09-12T11:45:52.572Z,5.9
2022-09-12T11:46:52.525Z,6.6
2022-09-12T11:47:53.623Z,7.0
2022-09-12T11:48:52.503Z,7.0
2022-09-12T11:49:52.488Z,5.8
2022-09-12T11:50:52.481Z,7.0
2022-09-12T11:51:52.486Z,7.5
2022-09-12T11:52:52.472Z,6.5
2022-09-12T11:53:52.458Z,5.5
2022-09-12T11:54:53.962Z,5.0
2022-09-12T11:56:00.003Z,4.6
2022-09-12T11:56:52.418Z,5.6
2022-09-12T11:57:52.414Z,5.6
2022-09-12T11:58:52.405Z,5.6
2022-09-12T11:59:52.378Z,4.9
2022-09-12T12:00:52.391Z,5.8
2022-09-12T12:01:52.356Z,5.7
2022-09-12T12:02:52.376Z,5.4
2022-09-12T12:03:52.396Z,6.2
2022-09-12T12:04:52.426Z,5.6
2022-09-12T12:05:52.314Z,5.6
2022-09-12T12:06:52.327Z,4.6
2022-09-12T12:07:52.296Z,5.7
2022-09-12T12:08:52.301Z,5.8
2022-09-12T12:09:52.293Z,5.9
2022-09-12T12:10:52.273Z,5.0
2022-09-12T12:11:52.249Z,5.1
2022-09-12T12:12:52.242Z,4.9
2022-09-12T12:13:52.242Z,4.9
2022-09-12T12:14:52.223Z,5.7
2022-09-12T12:15:52.263Z,5.0
2022-09-12T12:16:52.217Z,5.6
2022-09-12T12:17:52.201Z,5.5
2022-09-12T12:18:52.202Z,4.9
2022-09-12T12:19:52.162Z,5.2
2022-09-12T12:20:52.172Z,5.6
2022-09-12T12:21:52.140Z,5.2
2022-09-12T12:22:52.149Z,6.1
2022-09-12T12:23:52.118Z,5.7
2022-09-12T12:24:52.114Z,5.0
2022-09-12T12:25:52.114Z,5.0
2022-09-12T12:26:52.092Z,4.8
2022-09-12T12:27:52.093Z,4.1
2022-09-12T12:28:52.097Z,4.1
2022-09-12T12:29:52.060Z,5.6
2022-09-12T12:30:52.073Z,4.8
2022-09-12T12:31:52.034Z,4.6
2022-09-12T12:32:53.065Z,5.0
2022-09-12T12:33:52.015Z,5.1
2022-09-12T12:34:52.009Z,4.0
2022-09-12T12:35:52.003Z,5.1
2022-09-12T12:36:51.986Z,4.9
2022-09-12T12:37:51.970Z,4.6
2022-09-12T12:38:51.965Z,5.6
2022-09-12T12:39:52.157Z,5.7
2022-09-12T12:40:51.941Z,5.4
2022-09-12T12:41:51.927Z,4.8
2022-09-12T12:42:51.921Z,5.7
2022-09-12T12:43:52.193Z,5.4
2022-09-12T12:44:51.926Z,5.6
2022-09-12T12:45:51.948Z,5.5
2022-09-12T12:46:51.913Z,5.8
2022-09-12T12:47:51.880Z,4.4
2022-09-12T12:48:51.967Z,4.4
2022-09-12T12:49:51.882Z,4.4
2022-09-12T12:50:51.835Z,4.1
2022-09-12T12:51:51.833Z,4.0
2022-09-12T12:52:51.815Z,4.0
2022-09-12T12:53:51.931Z,4.5
2022-09-12T12:54:51.790Z,5.1
2022-09-12T12:55:51.778Z,4.3
2022-09-12T12:56:51.783Z,5.5
2022-09-12T12:57:51.861Z,4.0
2022-09-12T12:58:51.753Z,4.3
2022-09-12T12:59:51.734Z,3.8
2022-09-12T13:00:51.726Z,3.6
2022-09-12T13:01:55.130Z,3.9
2022-09-12T13:02:52.045Z,4.4
2022-09-12T13:03:51.716Z,4.6
2022-09-12T13:04:51.713Z,4.7
2022-09-12T13:05:52.074Z,5.2
2022-09-12T13:06:51.673Z,4.9
2022-09-12T13:07:51.652Z,5.4
2022-09-12T13:08:51.650Z,4.5
2022-09-12T13:09:51.624Z,5.1
2022-09-12T13:10:51.668Z,5.0
2022-09-12T13:11:51.613Z,5.2
2022-09-12T13:12:51.698Z,4.9
2022-09-12T13:13:51.581Z,4.8
2022-09-12T13:14:51.575Z,5.5
2022-09-12T13:15:51.642Z,4.4
2022-09-12T13:16:51.554Z,4.8
2022-09-12T13:17:51.542Z,5.0
2022-09-12T13:18:51.552Z,4.4
2022-09-12T13:20:10.648Z,4.4
2022-09-12T13:20:52.604Z,3.9
2022-09-12T13:21:51.495Z,3.8
2022-09-12T13:22:51.488Z,3.7
2022-09-12T13:23:51.485Z,3.5
2022-09-12T13:24:51.503Z,4.0
2022-09-12T13:25:51.452Z,4.4
2022-09-12T13:26:51.515Z,3.9
2022-09-12T13:27:51.433Z,3.9
2022-09-12T13:28:51.425Z,4.1
2022-09-12T13:29:51.438Z,4.0
2022-09-12T13:30:51.480Z,3.6
2022-09-12T13:31:51.383Z,3.6
2022-09-12T13:32:51.380Z,3.4
2022-09-12T13:33:51.463Z,3.7
2022-09-12T13:34:51.408Z,3.7
2022-09-12T13:35:51.359Z,3.5
2022-09-12T13:36:51.371Z,3.8
2022-09-12T13:37:51.582Z,4.2
2022-09-12T13:38:51.360Z,4.2
2022-09-12T13:39:51.369Z,4.1
2022-09-12T13:40:51.314Z,3.9
2022-09-12T13:41:51.275Z,5.0
2022-09-12T13:42:51.279Z,4.2
2022-09-12T13:43:51.258Z,3.8
2022-09-12T13:44:51.280Z,3.7
2022-09-12T13:45:51.264Z,3.7
2022-09-12T13:46:51.224Z,3.9
2022-09-12T13:47:54.244Z,4.0
2022-09-12T13:48:52.257Z,4.0
2022-09-12T13:49:51.198Z,4.2
2022-09-12T13:50:51.177Z,3.8
2022-09-12T13:51:51.162Z,4.5
2022-09-12T13:52:51.179Z,3.6
2022-09-12T13:53:51.143Z,3.8
2022-09-12T13:54:51.148Z,5.6
2022-09-12T13:55:51.224Z,4.5
2022-09-12T13:56:58.633Z,3.7
2022-09-12T13:57:51.095Z,3.9
2022-09-12T13:58:51.089Z,3.7
2022-09-12T13:59:51.074Z,3.4
2022-09-12T14:00:51.080Z,3.7
2022-09-12T14:01:51.146Z,3.4
2022-09-12T14:02:51.075Z,3.5
2022-09-12T14:03:51.080Z,3.4
2022-09-12T14:04:51.026Z,3.2
2022-09-12T14:05:51.008Z,3.1
2022-09-12T14:06:51.004Z,3.5
2022-09-12T14:07:51.001Z,3.3
2022-09-12T14:08:51.004Z,3.7
2022-09-12T14:09:50.995Z,3.7
2022-09-12T14:10:50.976Z,4.0
2022-09-12T14:11:50.950Z,4.3
2022-09-12T14:12:50.945Z,4.5
2022-09-12T14:13:50.980Z,3.8
2022-09-12T14:14:50.917Z,3.8
2022-09-12T14:15:50.921Z,4.1
2022-09-12T14:16:50.914Z,3.4
2022-09-12T14:17:50.878Z,3.8
2022-09-12T14:18:50.868Z,3.5
2022-09-12T14:19:50.851Z,3.5
2022-09-12T14:20:50.875Z,3.9
2022-09-12T14:21:50.831Z,3.5
2022-09-12T14:22:51.289Z,3.7
2022-09-12T14:23:50.874Z,3.4
2022-09-12T14:24:50.820Z,3.3
2022-09-12T14:25:50.802Z,3.1
2022-09-12T14:26:50.781Z,3.5
2022-09-12T14:27:50.769Z,3.2
2022-09-12T14:28:50.816Z,3.5
2022-09-12T14:29:50.771Z,3.6
2022-09-12T14:30:50.826Z,3.5
2022-09-12T14:31:50.721Z,3.6
2022-09-12T14:32:50.722Z,3.6
2022-09-12T14:33:50.799Z,3.4
2022-09-12T14:34:50.693Z,2.7
2022-09-12T14:35:50.688Z,3.0
2022-09-12T14:36:50.673Z,3.0
2022-09-12T14:37:50.661Z,2.7
2022-09-12T14:38:50.660Z,3.0